Time;durP1;ratioP1;P1;durP2;ratioP2;P2;SDS_P1;SDS_P2;PMS_P1;PMS_P2;Temp;Humidity;BMP_temperature;BMP_pressure;BME280_temperature;BME280_humidity;BME280_pressure;Samples;Min_cycle;Max_cycle;Signal;HPM_P1;HPM_P2
2022/01/25 00:08:54;;;;;;;75.50;63.80;;;;;;;-1.57;74.17;99366.98;109659;1271;22443;-72
2022/01/25 00:26:05;;;;;;;79.50;65.00;;;;;;;-1.46;73.43;99352.35;109668;1274;22396;-72
2022/01/25 00:28:25;;;;;;;76.50;66.60;;;;;;;-1.43;73.41;99357.52;109582;1274;23184;-71
2022/01/25 00:31:10;;;;;;;87.70;71.20;;;;;;;-1.43;73.39;99350.82;109677;1273;22487;-70
2022/01/25 00:33:42;;;;;;;77.60;69.30;;;;;;;-1.43;74.80;99350.17;109689;1274;22491;-71
2022/01/25 00:36:14;;;;;;;72.30;64.10;;;;;;;-1.43;74.78;99343.45;109576;1273;138332;-67
2022/01/25 00:38:42;;;;;;;76.20;64.40;;;;;;;-1.41;74.65;99342.19;109694;1273;22877;-67
2022/01/25 00:41:11;;;;;;;67.20;59.30;;;;;;;-1.38;74.59;99345.67;109660;1274;22439;-69
2022/01/25 00:43:39;;;;;;;71.40;63.80;;;;;;;-1.35;75.17;99343.96;109669;1273;22608;-68
2022/01/25 00:46:10;;;;;;;71.00;63.40;;;;;;;-1.32;74.60;99344.27;109667;1273;22463;-69
2022/01/25 00:48:44;;;;;;;76.30;66.20;;;;;;;-1.29;74.65;99346.25;109653;1274;23282;-70
2022/01/25 00:54:12;;;;;;;66.30;59.30;;;;;;;-1.32;76.21;99344.76;109519;1273;22483;-70
2022/01/25 00:56:45;;;;;;;65.20;58.50;;;;;;;-1.33;75.83;99342.13;109601;1273;22461;-68
2022/01/25 00:59:18;;;;;;;73.10;60.20;;;;;;;-1.33;76.54;99343.71;109693;1273;22526;-68
2022/01/25 01:01:52;;;;;;;68.00;60.90;;;;;;;-1.31;75.30;99342.90;109676;1272;22480;-69
2022/01/25 01:04:25;;;;;;;70.70;63.10;;;;;;;-1.31;75.94;99339.23;109592;1274;22612;-70
2022/01/25 01:06:55;;;;;;;69.70;61.40;;;;;;;-1.32;76.18;99337.31;109560;1274;138548;-72
2022/01/25 01:09:32;;;;;;;73.50;65.50;;;;;;;-1.36;77.63;99333.68;109683;1273;22526;-68
2022/01/25 01:12:08;;;;;;;69.80;62.30;;;;;;;-1.41;76.70;99335.79;109688;1273;23695;-71
2022/01/25 01:14:56;;;;;;;68.20;59.40;;;;;;;-1.44;78.40;99336.03;109687;1274;22465;-68
2022/01/25 01:43:04;;;;;;;66.60;59.80;;;;;;;-1.57;78.08;99315.23;109662;1274;22467;-68
2022/01/25 01:46:00;;;;;;;70.70;58.60;;;;;;;-1.59;77.80;99311.91;109660;1273;23189;-69
2022/01/25 01:48:48;;;;;;;68.60;60.10;;;;;;;-1.57;77.86;99306.56;109614;1274;22467;-68
2022/01/25 01:51:29;;;;;;;71.20;63.70;;;;;;;-1.55;78.36;99296.63;109701;1274;22409;-67
2022/01/25 01:54:14;;;;;;;73.10;64.50;;;;;;;-1.55;78.32;99296.27;109609;1273;22446;-66
2022/01/25 01:56:46;;;;;;;75.20;67.40;;;;;;;-1.58;78.65;99294.23;109626;1274;22497;-68
2022/01/25 01:59:18;;;;;;;70.10;62.90;;;;;;;-1.62;79.03;99291.10;109673;1274;22506;-68
2022/01/25 02:01:54;;;;;;;70.90;63.30;;;;;;;-1.63;79.78;99289.14;109598;1274;22477;-68
2022/01/25 02:04:26;;;;;;;75.00;67.50;;;;;;;-1.62;80.07;99289.21;109585;1274;22506;-68
2022/01/25 02:06:57;;;;;;;73.70;66.10;;;;;;;-1.60;79.41;99286.15;109690;1273;22464;-67
2022/01/25 02:09:26;;;;;;;78.20;70.40;;;;;;;-1.61;79.90;99284.97;109554;1274;137864;-68
2022/01/25 02:11:58;;;;;;;83.40;74.00;;;;;;;-1.62;79.73;99277.42;109651;1274;22493;-68
2022/01/25 02:14:37;;;;;;;73.60;66.10;;;;;;;-1.63;79.80;99274.36;109666;1274;22445;-67
2022/01/25 02:17:13;;;;;;;73.70;66.10;;;;;;;-1.62;79.70;99272.11;109572;1274;23168;-70
2022/01/25 02:22:35;;;;;;;77.00;68.90;;;;;;;-1.50;79.25;99275.80;109668;1274;23804;-68
2022/01/25 02:25:05;;;;;;;85.90;73.40;;;;;;;-1.50;79.35;99271.35;109680;1273;22431;-67
2022/01/25 02:27:34;;;;;;;99.80;76.70;;;;;;;-1.49;79.30;99266.84;109577;1274;22444;-65
2022/01/25 02:30:08;;;;;;;75.50;66.10;;;;;;;-1.52;79.82;99267.02;109204;1273;644986;-67
2022/01/25 02:32:38;;;;;;;76.10;68.20;;;;;;;-1.52;81.01;99267.34;109689;1273;23236;-67
2022/01/25 02:35:07;;;;;;;73.90;66.00;;;;;;;-1.49;80.26;99268.30;109607;1274;22494;-66
2022/01/25 02:37:38;;;;;;;71.70;63.90;;;;;;;-1.45;79.88;99268.76;109553;1274;22459;-67
2022/01/25 02:40:08;;;;;;;80.30;71.50;;;;;;;-1.43;80.56;99265.23;109606;1274;23158;-67
2022/01/25 02:42:40;;;;;;;82.40;69.40;;;;;;;-1.45;80.07;99260.50;109677;1273;22492;-67
2022/01/25 02:45:15;;;;;;;72.00;64.60;;;;;;;-1.48;80.46;99257.01;109684;1274;22433;-68
2022/01/25 02:50:35;;;;;;;73.10;65.00;;;;;;;-1.50;81.13;99254.77;109683;1274;22761;-67
2022/01/25 02:53:03;;;;;;;75.90;68.30;;;;;;;-1.49;80.95;99254.15;109670;1274;22494;-68
2022/01/25 02:55:32;;;;;;;78.50;70.20;;;;;;;-1.48;80.79;99254.89;109658;1274;22467;-67
2022/01/25 02:58:02;;;;;;;86.90;76.30;;;;;;;-1.49;81.21;99248.86;109669;1273;23532;-67
2022/01/25 03:00:32;;;;;;;76.70;68.70;;;;;;;-1.50;81.18;99245.51;109682;1274;22412;-68
2022/01/25 03:03:01;;;;;;;71.40;64.40;;;;;;;-1.51;83.08;99247.66;109651;1273;22473;-68
2022/01/25 03:05:31;;;;;;;73.90;66.00;;;;;;;-1.50;81.94;99242.80;109658;1274;22560;-68
2022/01/25 03:08:01;;;;;;;79.50;66.70;;;;;;;-1.48;81.60;99236.39;109668;1274;22559;-68
2022/01/25 03:10:40;;;;;;;77.70;69.60;;;;;;;-1.43;81.18;99235.30;109703;1274;23103;-68
2022/01/25 03:13:15;;;;;;;81.40;72.60;;;;;;;-1.39;80.98;99237.91;109660;1274;23282;-68
2022/01/25 03:23:57;;;;;;;75.50;67.60;;;;;;;-1.45;81.10;99236.14;109648;1274;22448;-68
2022/01/25 03:26:27;;;;;;;73.40;66.00;;;;;;;-1.40;80.97;99236.15;109654;1274;22455;-68
2022/01/25 03:28:56;;;;;;;72.80;65.30;;;;;;;-1.35;81.03;99230.63;109695;1274;22449;-67
2022/01/25 03:31:25;;;;;;;83.60;75.00;;;;;;;-1.33;81.24;99228.31;109681;1274;22446;-67
2022/01/25 03:33:53;;;;;;;82.10;73.40;;;;;;;-1.34;81.05;99235.05;109677;1274;22415;-68
2022/01/25 03:36:25;;;;;;;76.30;67.90;;;;;;;-1.35;81.11;99234.84;109664;1274;22476;-67
2022/01/25 03:38:54;;;;;;;72.10;64.50;;;;;;;-1.35;81.07;99234.34;109541;1274;22561;-68
2022/01/25 03:41:25;;;;;;;74.40;67.20;;;;;;;-1.32;81.02;99234.44;109668;1274;23484;-68
2022/01/25 03:43:56;;;;;;;77.20;69.70;;;;;;;-1.28;81.15;99237.02;109658;1273;22448;-68
2022/01/25 03:46:39;;;;;;;79.70;71.60;;;;;;;-1.25;81.22;99238.15;109591;1274;22466;-68
2022/01/25 03:51:55;;;;;;;74.20;67.00;;;;;;;-1.29;81.43;99234.46;109692;1273;22423;-68
2022/01/25 03:54:25;;;;;;;69.60;62.30;;;;;;;-1.30;81.26;99233.18;109650;1274;22487;-68
2022/01/25 03:56:55;;;;;;;67.90;61.10;;;;;;;-1.30;81.41;99229.94;109679;1274;23081;-68
2022/01/25 03:59:23;;;;;;;71.40;60.60;;;;;;;-1.27;81.44;99228.94;109676;1274;22555;-68
2022/01/25 04:01:51;;;;;;;75.80;68.30;;;;;;;-1.27;82.10;99226.63;109654;1274;22536;-68
2022/01/25 04:04:24;;;;;;;79.90;71.40;;;;;;;-1.29;82.60;99221.93;109667;1273;22446;-67
2022/01/25 04:06:53;;;;;;;75.90;68.10;;;;;;;-1.29;82.30;99221.20;109686;1273;22578;-68
2022/01/25 04:09:22;;;;;;;74.40;67.00;;;;;;;-1.26;82.17;99215.45;109654;1273;23087;-67
2022/01/25 04:11:51;;;;;;;73.10;62.90;;;;;;;-1.23;81.85;99205.38;109665;1273;22507;-68
2022/01/25 04:14:19;;;;;;;74.40;66.50;;;;;;;-1.20;81.93;99209.51;109667;1273;22436;-68
2022/01/25 04:16:56;;;;;;;71.90;64.70;;;;;;;-1.20;81.77;99212.29;109702;1273;22246;-68
2022/01/25 04:25:04;;;;;;;69.30;61.80;;;;;;;-1.24;81.82;99203.54;109650;1274;22455;-68
2022/01/25 04:27:33;;;;;;;62.30;56.00;;;;;;;-1.21;81.88;99199.02;109664;1274;22553;-67
2022/01/25 04:30:03;;;;;;;74.30;66.10;;;;;;;-1.15;81.64;99198.52;109666;1274;22550;-67
2022/01/25 04:32:34;;;;;;;73.70;65.80;;;;;;;-1.11;81.94;99196.08;109664;1274;23352;-67
2022/01/25 04:35:13;;;;;;;74.80;66.70;;;;;;;-1.09;82.00;99188.41;109663;1274;22401;-68
2022/01/25 04:48:55;;;;;;;67.80;60.80;;;;;;;-1.07;82.45;99181.34;109644;1273;22395;-68
2022/01/25 04:51:48;;;;;;;64.70;58.20;;;;;;;-1.13;83.15;99183.25;109661;1274;23190;-68
2022/01/25 04:54:45;;;;;;;62.00;55.70;;;;;;;-1.21;83.32;99181.96;109604;1274;22410;-68
2022/01/25 05:02:19;;;;;;;74.60;66.00;;;;;;;-1.21;82.76;99173.80;109681;1274;22488;-68
2022/01/25 05:04:54;;;;;;;70.30;62.10;;;;;;;-1.19;82.86;99174.81;109671;1273;22424;-68
2022/01/25 05:07:46;;;;;;;;;;;;;;;-1.21;83.07;99174.52;109671;1273;22451;-68
2022/01/25 05:10:15;;;;;;;68.30;61.50;;;;;;;-1.28;83.14;99169.90;109654;1274;22431;-68
2022/01/25 05:12:51;;;;;;;65.70;59.20;;;;;;;-1.32;83.29;99167.42;109659;1274;22475;-67
2022/01/25 05:16:15;;;;;;;58.60;52.80;;;;;;;-1.30;83.10;99169.48;109644;1273;22258;-68
2022/01/25 05:18:38;;;;;;;56.30;50.80;;;;;;;-1.24;82.93;99161.69;109631;1274;22498;-68
2022/01/25 05:23:54;;;;;;;62.40;56.50;;;;;;;-1.18;83.05;99174.67;109660;1274;22454;-68
2022/01/25 05:26:23;;;;;;;65.10;58.70;;;;;;;-1.18;83.03;99175.11;109665;1274;22288;-68
2022/01/25 05:28:58;;;;;;;63.60;57.30;;;;;;;-1.20;83.07;99175.50;109672;1274;22507;-68
2022/01/25 05:31:26;;;;;;;63.80;57.40;;;;;;;-1.20;82.96;99173.48;109654;1274;22477;-68
2022/01/25 05:33:55;;;;;;;63.10;56.80;;;;;;;-1.16;82.85;99164.39;109680;1273;22455;-68
2022/01/25 05:36:25;;;;;;;66.10;59.70;;;;;;;-1.12;82.83;99160.58;109650;1274;22517;-68
2022/01/25 05:38:58;;;;;;;62.90;56.80;;;;;;;-1.12;82.94;99156.48;109662;1274;22484;-68
2022/01/25 05:41:30;;;;;;;70.10;62.80;;;;;;;-1.13;83.27;99149.10;109667;1273;23220;-68
2022/01/25 05:46:44;;;;;;;63.80;57.60;;;;;;;-1.19;83.94;99138.29;109659;1273;22551;-68
2022/01/25 05:49:12;;;;;;;61.60;55.30;;;;;;;-1.21;83.64;99134.88;109672;1274;23359;-67
2022/01/25 05:51:41;;;;;;;71.50;64.20;;;;;;;-1.22;84.24;99133.37;109675;1273;22515;-68
2022/01/25 05:54:09;;;;;;;68.10;61.20;;;;;;;-1.22;83.82;99130.94;109649;1274;23182;-68
2022/01/25 05:56:37;;;;;;;66.40;59.90;;;;;;;-1.25;83.97;99123.10;109588;1274;23175;-68
2022/01/25 05:59:05;;;;;;;66.00;59.20;;;;;;;-1.28;84.38;99134.02;109676;1274;22521;-68
2022/01/25 06:01:35;;;;;;;64.50;56.50;;;;;;;-1.29;84.20;99134.02;109690;1274;22493;-68
2022/01/25 06:04:03;;;;;;;56.20;50.70;;;;;;;-1.28;83.89;99135.81;109645;1273;22432;-68
2022/01/25 06:06:31;;;;;;;56.30;50.90;;;;;;;-1.27;84.02;99136.35;109527;1274;22461;-68
2022/01/25 06:08:59;;;;;;;62.40;56.20;;;;;;;-1.27;84.46;99132.44;109659;1273;22554;-68
2022/01/25 06:11:28;;;;;;;63.00;56.80;;;;;;;-1.27;84.13;99130.54;109675;1273;22433;-68
2022/01/25 06:13:55;;;;;;;59.20;53.20;;;;;;;-1.29;84.47;99137.11;109663;1274;23127;-68
2022/01/25 06:16:28;;;;;;;58.60;52.80;;;;;;;-1.29;84.25;99136.05;109647;1273;22386;-69
2022/01/25 06:18:58;;;;;;;59.10;52.80;;;;;;;-1.26;84.14;99130.41;109692;1273;22460;-69
2022/01/25 06:21:26;;;;;;;60.40;54.00;;;;;;;-1.25;84.69;99127.70;109650;1274;22555;-69
2022/01/25 06:23:55;;;;;;;64.70;58.10;;;;;;;-1.27;85.26;99131.63;109657;1274;22645;-69
2022/01/25 06:26:24;;;;;;;62.30;56.20;;;;;;;-1.30;84.77;99132.62;109682;1274;22427;-69
2022/01/25 06:28:52;;;;;;;60.40;54.20;;;;;;;-1.32;85.14;99126.42;109665;1274;22490;-70
2022/01/25 06:31:21;;;;;;;60.70;53.80;;;;;;;-1.34;84.97;99118.92;109649;1274;23090;-69
2022/01/25 06:33:49;;;;;;;62.10;55.70;;;;;;;-1.32;85.23;99110.95;109679;1274;22499;-69
2022/01/25 06:36:18;;;;;;;123.40;92.70;;;;;;;-1.31;85.16;99115.65;109679;1273;22510;-69
2022/01/25 06:38:47;;;;;;;121.70;70.40;;;;;;;-1.31;85.49;99104.75;109670;1273;23072;-68
2022/01/25 06:41:17;;;;;;;69.60;62.00;;;;;;;-1.33;85.48;99114.54;109625;1273;22540;-69
2022/01/25 06:43:46;;;;;;;63.80;55.20;;;;;;;-1.36;85.81;99115.58;109649;1273;22438;-69
2022/01/25 06:46:14;;;;;;;58.50;50.70;;;;;;;-1.36;85.80;99111.54;109674;1273;22471;-69
2022/01/25 06:48:42;;;;;;;55.10;49.80;;;;;;;-1.34;85.63;99109.73;109682;1273;23139;-68
2022/01/25 06:51:10;;;;;;;57.50;52.00;;;;;;;-1.33;85.72;99108.51;109672;1274;22448;-68
2022/01/25 06:53:38;;;;;;;61.50;55.40;;;;;;;-1.34;86.61;99110.65;109661;1274;22510;-68
2022/01/25 06:56:06;;;;;;;55.40;50.00;;;;;;;-1.35;86.11;99110.86;109677;1273;22527;-71
2022/01/25 06:58:34;;;;;;;59.10;53.30;;;;;;;-1.34;85.88;99112.86;109659;1273;22547;-68
2022/01/25 07:01:03;;;;;;;55.40;50.10;;;;;;;-1.30;85.85;99113.98;109664;1274;22469;-70
2022/01/25 07:03:31;;;;;;;62.70;56.80;;;;;;;-1.26;86.06;99116.58;109664;1274;22458;-68
2022/01/25 07:05:59;;;;;;;61.80;56.00;;;;;;;-1.23;86.02;99118.73;109674;1274;22427;-69
2022/01/25 07:08:27;;;;;;;69.70;62.70;;;;;;;-1.24;86.72;99113.61;109640;1274;22548;-72
2022/01/25 07:10:55;;;;;;;67.00;60.50;;;;;;;-1.27;86.24;99116.25;109654;1273;22470;-69
2022/01/25 07:13:25;;;;;;;61.50;54.90;;;;;;;-1.28;85.98;99118.98;109668;1273;22510;-67
2022/01/25 07:15:53;;;;;;;55.50;50.10;;;;;;;-1.24;86.34;99118.55;109671;1273;22391;-67
2022/01/25 07:18:21;;;;;;;64.40;58.30;;;;;;;-1.23;86.36;99117.99;109651;1274;22469;-68
2022/01/25 07:20:50;;;;;;;68.70;62.20;;;;;;;-1.21;86.46;99117.27;109657;1273;22425;-68
2022/01/25 07:23:19;;;;;;;62.70;55.70;;;;;;;-1.22;86.37;99107.50;109685;1273;22559;-68
2022/01/25 07:25:47;;;;;;;63.60;57.70;;;;;;;-1.23;86.77;99107.42;109547;1273;138651;-68
2022/01/25 07:28:16;;;;;;;61.50;55.20;;;;;;;-1.17;86.31;99106.91;109662;1274;22511;-68
2022/01/25 07:30:44;;;;;;;63.70;57.30;;;;;;;-1.13;85.93;99106.70;109647;1273;23132;-68
2022/01/25 07:33:13;;;;;;;66.40;59.90;;;;;;;-1.10;85.99;99104.08;109655;1272;22575;-67
2022/01/25 07:35:41;;;;;;;73.70;65.60;;;;;;;-1.09;86.19;99091.39;109666;1272;22547;-69
2022/01/25 07:38:15;;;;;;;66.20;59.50;;;;;;;-1.08;86.07;99090.14;109652;1274;22306;-68
2022/01/25 07:40:44;;;;;;;64.80;58.60;;;;;;;-1.08;86.09;99095.67;109579;1275;22450;-68
2022/01/25 07:43:13;;;;;;;62.00;56.10;;;;;;;-1.07;86.05;99099.25;109659;1272;22450;-68
2022/01/25 07:45:49;;;;;;;70.20;63.60;;;;;;;-1.07;86.03;99098.27;109650;1273;22989;-69
2022/01/25 07:48:19;;;;;;;73.50;66.40;;;;;;;-1.05;86.31;99098.78;109664;1274;22407;-70
2022/01/25 07:50:49;;;;;;;72.90;65.10;;;;;;;-1.06;86.38;99093.89;109639;1274;22270;-71
2022/01/25 07:53:17;;;;;;;64.70;58.20;;;;;;;-1.07;86.74;99097.80;109672;1273;23219;-70
2022/01/25 07:55:45;;;;;;;62.50;56.30;;;;;;;-1.08;87.16;99098.85;109654;1273;22476;-69
2022/01/25 07:58:18;;;;;;;56.80;51.20;;;;;;;-1.04;86.76;99098.02;109665;1273;22541;-70
2022/01/25 08:00:50;;;;;;;63.40;57.50;;;;;;;-1.00;86.95;99105.27;109676;1273;22496;-69
2022/01/25 08:03:24;;;;;;;65.80;59.40;;;;;;;-0.99;86.74;99103.34;109591;1274;22502;-70
2022/01/25 08:05:56;;;;;;;66.20;59.40;;;;;;;-0.98;86.80;99106.23;109572;1274;22383;-68
2022/01/25 08:08:31;;;;;;;;;;;;;;;-1.03;87.62;99099.23;109688;1274;22559;-70
2022/01/25 08:11:16;;;;;;;62.30;56.30;;;;;;;-1.06;87.43;99088.54;109648;1273;22434;-71
2022/01/25 08:14:12;;;;;;;61.40;55.50;;;;;;;-1.04;87.38;99093.73;109657;1274;22379;-70
2022/01/25 08:16:52;;;;;;;67.70;61.10;;;;;;;-1.01;87.25;99092.01;109662;1274;22668;-68
2022/01/25 08:19:28;;;;;;;71.00;64.30;;;;;;;-1.00;87.12;99105.08;109650;1274;22413;-69
2022/01/25 08:21:59;;;;;;;67.00;60.40;;;;;;;-1.01;87.23;99097.42;109668;1273;22476;-70
2022/01/25 08:24:34;;;;;;;62.10;56.20;;;;;;;-0.99;87.31;99092.27;109684;1274;22452;-70
2022/01/25 08:27:06;;;;;;;62.90;56.90;;;;;;;-0.92;87.19;99095.05;109591;1274;23173;-71
2022/01/25 08:29:38;;;;;;;66.10;59.90;;;;;;;-0.88;87.34;99102.92;109569;1273;22500;-70
2022/01/25 08:32:14;;;;;;;70.90;64.20;;;;;;;-0.85;87.03;99094.38;109645;1274;22478;-70
2022/01/25 08:34:51;;;;;;;76.90;69.10;;;;;;;-0.82;87.03;99092.27;109650;1274;22434;-72
2022/01/25 08:37:19;;;;;;;75.70;68.20;;;;;;;-0.80;86.84;99091.98;109676;1274;22425;-71
2022/01/25 08:39:52;;;;;;;63.10;56.90;;;;;;;-0.78;86.76;99103.29;109680;1273;22239;-72
2022/01/25 08:42:22;;;;;;;62.70;56.20;;;;;;;-0.74;86.90;99101.20;109659;1274;22552;-71
2022/01/25 08:44:52;;;;;;;68.20;61.80;;;;;;;-0.68;86.72;99096.30;109638;1274;22463;-72
2022/01/25 08:47:28;;;;;;;66.30;60.20;;;;;;;-0.65;86.79;99088.12;109677;1273;23197;-71
2022/01/25 08:49:59;;;;;;;67.90;61.50;;;;;;;-0.64;87.20;99087.48;109683;1272;23203;-71
2022/01/25 08:52:39;;;;;;;61.40;55.50;;;;;;;-0.67;87.27;99084.41;109670;1273;22607;-73
2022/01/25 08:55:30;;;;;;;61.50;55.60;;;;;;;-0.69;87.60;99081.35;109671;1273;22462;-69
2022/01/25 08:58:16;;;;;;;62.50;56.30;;;;;;;-0.68;87.42;99074.36;109668;1272;22472;-69
2022/01/25 09:00:47;;;;;;;65.00;58.50;;;;;;;-0.64;87.37;99072.69;109670;1273;22380;-70
2022/01/25 09:03:16;;;;;;;66.80;60.70;;;;;;;-0.64;87.57;99077.91;109660;1274;22537;-70
2022/01/25 09:05:47;;;;;;;69.50;62.90;;;;;;;-0.66;87.96;99082.30;109674;1274;23308;-69
2022/01/25 09:08:27;;;;;;;85.60;69.10;;;;;;;-0.67;87.80;99078.17;109656;1272;22503;-68
2022/01/25 09:10:59;;;;;;;72.10;64.90;;;;;;;-0.65;87.54;99075.95;109681;1274;22550;-71
2022/01/25 09:13:30;;;;;;;72.40;65.30;;;;;;;-0.60;87.52;99084.48;109688;1273;22471;-70
2022/01/25 09:16:02;;;;;;;73.10;66.00;;;;;;;-0.58;87.52;99088.98;109670;1273;23051;-69
2022/01/25 09:18:31;;;;;;;67.70;61.50;;;;;;;-0.56;87.69;99088.17;109680;1273;23136;-70
2022/01/25 09:21:00;;;;;;;70.00;63.20;;;;;;;-0.59;87.74;99092.06;109644;1274;22827;-70
2022/01/25 09:23:29;;;;;;;64.90;58.70;;;;;;;-0.59;87.48;99095.45;109581;1273;22349;-70
2022/01/25 09:25:57;;;;;;;68.50;61.60;;;;;;;-0.55;87.64;99094.73;109643;1272;22454;-70
2022/01/25 09:28:25;;;;;;;72.90;65.70;;;;;;;-0.50;87.31;99097.64;109664;1274;22552;-70
2022/01/25 09:30:54;;;;;;;76.40;68.90;;;;;;;-0.48;87.31;99095.81;109656;1274;22555;-70
2022/01/25 09:33:23;;;;;;;74.60;67.00;;;;;;;-0.47;87.57;99097.08;109662;1273;22447;-70
2022/01/25 09:35:53;;;;;;;70.80;63.80;;;;;;;-0.45;87.37;99101.23;109683;1273;22486;-71
2022/01/25 09:38:22;;;;;;;77.10;69.50;;;;;;;-0.43;87.40;99092.70;109689;1272;22998;-70
2022/01/25 09:40:51;;;;;;;81.60;73.40;;;;;;;-0.41;87.53;99084.50;109670;1272;23132;-69
2022/01/25 09:43:23;;;;;;;86.00;77.60;;;;;;;-0.39;87.63;99085.30;109666;1273;23191;-69
2022/01/25 09:45:52;;;;;;;75.10;68.10;;;;;;;-0.40;87.72;99077.34;109566;1274;23081;-70
2022/01/25 09:48:21;;;;;;;77.30;69.80;;;;;;;-0.38;87.63;99079.18;109681;1274;22398;-70
2022/01/25 09:50:49;;;;;;;78.10;70.50;;;;;;;-0.33;87.73;99074.31;109672;1273;22434;-71
2022/01/25 09:53:18;;;;;;;79.30;71.80;;;;;;;-0.30;87.97;99070.45;109663;1273;22543;-71
2022/01/25 09:55:48;;;;;;;85.70;77.40;;;;;;;-0.30;87.70;99065.60;109664;1273;23494;-69
2022/01/25 09:58:18;;;;;;;86.50;77.10;;;;;;;-0.30;87.82;99062.91;109676;1273;22766;-69
2022/01/25 10:00:47;;;;;;;86.50;76.30;;;;;;;-0.28;87.90;99053.30;109670;1273;22255;-68
2022/01/25 10:03:25;;;;;;;80.70;72.50;;;;;;;-0.25;87.92;99052.86;109674;1274;23181;-69
2022/01/25 10:05:56;;;;;;;81.70;72.30;;;;;;;-0.18;87.73;99057.44;109675;1273;23241;-70
2022/01/25 10:08:33;;;;;;;81.40;73.30;;;;;;;-0.12;87.64;99059.70;109667;1272;22457;-69
2022/01/25 10:11:07;;;;;;;84.70;75.70;;;;;;;-0.11;87.82;99050.12;109653;1272;22361;-69
2022/01/25 10:13:41;;;;;;;94.40;81.40;;;;;;;-0.11;87.73;99049.17;109593;1274;23090;-71
2022/01/25 10:16:13;;;;;;;102.90;81.80;;;;;;;-0.13;88.04;99052.48;109692;1273;23306;-70
2022/01/25 10:18:47;;;;;;;93.90;77.50;;;;;;;-0.14;88.01;99052.36;109536;1273;138865;-69
2022/01/25 10:21:25;;;;;;;101.10;77.80;;;;;;;-0.12;88.19;99053.67;109675;1273;22280;-68
2022/01/25 10:24:01;;;;;;;132.30;98.10;;;;;;;-0.10;87.72;99050.81;109652;1274;23287;-68
2022/01/25 10:26:35;;;;;;;109.40;85.90;;;;;;;-0.05;87.98;99051.52;109651;1274;23255;-69
2022/01/25 10:29:14;;;;;;;173.70;125.20;;;;;;;-0.04;88.00;99051.39;109660;1274;22443;-67
2022/01/25 10:31:45;;;;;;;105.70;88.10;;;;;;;-0.03;88.06;99051.92;109662;1274;22519;-68
2022/01/25 10:34:20;;;;;;;116.20;91.60;;;;;;;-0.00;87.83;99045.98;109665;1273;22507;-68
2022/01/25 10:36:49;;;;;;;99.90;84.10;;;;;;;0.02;87.75;99038.31;109657;1274;22447;-69
2022/01/25 10:39:28;;;;;;;112.20;87.00;;;;;;;0.03;87.68;99031.79;109651;1274;22497;-71
2022/01/25 10:42:19;;;;;;;103.40;87.50;;;;;;;0.04;87.84;99025.15;109674;1272;22426;-69
2022/01/25 10:44:51;;;;;;;120.30;91.70;;;;;;;0.02;87.81;99020.39;109502;1274;22471;-71
2022/01/25 10:47:38;;;;;;;101.40;80.20;;;;;;;0.01;87.96;99021.13;109661;1272;22670;-69
2022/01/25 10:50:16;;;;;;;77.70;69.70;;;;;;;-0.02;87.93;99020.86;109518;1273;138625;-70
2022/01/25 10:52:45;;;;;;;82.40;73.80;;;;;;;-0.05;88.05;99020.53;109652;1272;23267;-69
2022/01/25 10:55:14;;;;;;;81.20;71.40;;;;;;;-0.05;88.30;99014.18;109672;1271;23611;-68
2022/01/25 10:57:55;;;;;;;91.20;81.30;;;;;;;-0.04;88.36;99010.35;109631;1274;22416;-70
2022/01/25 11:00:33;;;;;;;89.70;79.80;;;;;;;-0.02;88.33;99011.00;109648;1274;22463;-68
2022/01/25 11:03:03;;;;;;;90.00;76.80;;;;;;;-0.00;88.53;99009.41;109647;1273;22478;-69
2022/01/25 11:05:38;;;;;;;85.80;76.40;;;;;;;0.01;88.41;99012.77;109652;1273;22432;-68
2022/01/25 11:08:16;;;;;;;83.40;73.70;;;;;;;0.02;88.42;99005.95;109649;1273;23363;-69
2022/01/25 11:10:49;;;;;;;94.20;80.10;;;;;;;0.06;88.46;99010.02;109660;1274;23180;-69
2022/01/25 11:13:35;;;;;;;92.30;81.90;;;;;;;0.07;88.44;99004.16;109646;1274;22452;-69
2022/01/25 11:16:09;;;;;;;114.40;84.90;;;;;;;0.08;88.32;99003.95;109655;1274;22439;-68
2022/01/25 11:18:39;;;;;;;88.50;78.70;;;;;;;0.07;88.58;99002.33;109649;1274;23124;-70
2022/01/25 11:21:11;;;;;;;83.30;74.30;;;;;;;0.08;88.57;99001.91;109669;1273;22363;-69
2022/01/25 11:23:41;;;;;;;86.90;77.50;;;;;;;0.11;88.65;98996.04;109546;1274;138580;-69
2022/01/25 11:26:13;;;;;;;93.10;82.30;;;;;;;0.14;88.48;98994.95;109646;1272;22576;-68
2022/01/25 11:28:44;;;;;;;119.80;91.00;;;;;;;0.13;88.61;98993.02;109658;1274;22431;-69
2022/01/25 11:31:18;;;;;;;112.20;89.40;;;;;;;0.11;88.66;98990.29;109664;1273;22258;-68
2022/01/25 11:33:47;;;;;;;111.00;88.10;;;;;;;0.13;88.57;98988.58;109470;1274;22503;-69
2022/01/25 11:36:16;;;;;;;106.00;88.70;;;;;;;0.18;88.40;98984.02;109649;1274;22413;-68
2022/01/25 11:38:48;;;;;;;146.20;100.90;;;;;;;0.25;88.52;98979.57;109647;1273;22529;-68
2022/01/25 11:41:19;;;;;;;169.70;102.80;;;;;;;0.32;88.46;98978.98;109660;1273;22395;-68
2022/01/25 11:44:21;;;;;;;98.00;80.50;;;;;;;0.29;88.55;98971.98;109649;1272;22636;-68
2022/01/25 11:46:58;;;;;;;99.00;80.40;;;;;;;0.23;88.58;98969.05;109667;1273;22527;-67
2022/01/25 11:49:26;;;;;;;91.10;81.40;;;;;;;0.21;88.70;98970.80;109652;1274;22476;-68
2022/01/25 11:52:11;;;;;;;85.90;77.00;;;;;;;0.24;88.52;98961.26;109651;1272;23236;-67
2022/01/25 11:54:41;;;;;;;90.00;78.50;;;;;;;0.27;88.96;98964.15;109674;1274;22598;-68
2022/01/25 11:57:17;;;;;;;89.20;79.90;;;;;;;0.26;89.02;98956.27;109577;1272;22519;-67
2022/01/25 11:59:54;;;;;;;82.20;72.80;;;;;;;0.26;89.16;98957.14;109643;1274;22417;-68
2022/01/25 12:02:43;;;;;;;84.90;75.60;;;;;;;0.23;89.50;98952.70;109667;1272;22278;-71
2022/01/25 12:05:14;;;;;;;93.60;82.50;;;;;;;0.21;89.41;98948.77;109670;1272;22521;-71
2022/01/25 12:08:09;;;;;;;117.90;91.30;;;;;;;0.19;89.66;98945.64;109658;1274;22355;-71
2022/01/25 12:10:44;;;;;;;122.70;93.50;;;;;;;0.18;89.27;98944.88;109651;1273;22669;-71
2022/01/25 12:13:15;;;;;;;107.60;88.10;;;;;;;0.23;89.21;98944.98;109537;1274;22518;-72
2022/01/25 12:15:45;;;;;;;140.90;106.50;;;;;;;0.29;89.02;98946.61;109669;1274;22435;-72
2022/01/25 12:18:51;;;;;;;136.40;104.40;;;;;;;0.36;88.88;98942.55;109549;1272;138537;-72
2022/01/25 12:21:38;;;;;;;;;;;;;;;0.41;88.85;98940.84;109714;1274;22652;-71
2022/01/25 12:24:23;;;;;;;117.00;92.70;;;;;;;0.40;89.02;98939.81;109654;1272;22475;-73
2022/01/25 12:27:10;;;;;;;113.00;89.20;;;;;;;0.39;88.90;98943.36;109697;1273;22698;-74
2022/01/25 12:29:44;;;;;;;152.00;97.50;;;;;;;0.42;89.09;98951.12;109611;1274;22269;-73
2022/01/25 12:32:23;;;;;;;88.60;79.40;;;;;;;0.42;89.01;98942.06;109674;1274;22597;-73
2022/01/25 12:35:07;;;;;;;89.00;79.30;;;;;;;0.41;89.08;98943.37;109652;1273;22374;-74
2022/01/25 12:37:44;;;;;;;111.40;90.30;;;;;;;0.40;88.82;98934.52;109660;1273;22541;-74
2022/01/25 12:40:25;;;;;;;88.90;78.20;;;;;;;0.37;89.11;98935.50;109679;1274;22450;-71
2022/01/25 12:43:18;;;;;;;106.60;81.80;;;;;;;0.35;89.59;98935.42;109675;1274;22465;-70
2022/01/25 12:45:56;;;;;;;124.80;91.10;;;;;;;0.37;89.40;98925.47;109593;1274;23056;-71
2022/01/25 12:48:32;;;;;;;172.00;115.70;;;;;;;0.40;89.32;98929.61;109556;1273;139035;-71
2022/01/25 12:51:07;;;;;;;141.20;100.10;;;;;;;0.44;89.39;98926.64;109673;1272;22478;-71
2022/01/25 12:53:39;;;;;;;147.10;105.90;;;;;;;0.47;89.36;98930.83;109669;1272;23255;-71
2022/01/25 12:56:10;;;;;;;140.50;98.60;;;;;;;0.47;89.39;98927.92;109685;1273;23048;-70
2022/01/25 12:58:39;;;;;;;114.60;89.00;;;;;;;0.48;89.18;98921.69;109637;1272;22463;-71
2022/01/25 13:01:11;;;;;;;96.00;80.70;;;;;;;0.49;89.49;98919.73;109690;1273;22477;-72
2022/01/25 13:03:44;;;;;;;110.50;85.90;;;;;;;0.49;89.39;98922.91;109650;1274;23253;-70
2022/01/25 13:06:19;;;;;;;120.10;92.70;;;;;;;0.46;89.55;98919.73;109682;1274;22456;-72
2022/01/25 13:12:37;;;;;;;120.00;87.60;;;;;;;0.40;89.54;98920.70;109655;1274;22475;-70
2022/01/25 13:17:21;;;;;;;133.50;92.60;;;;;;;0.39;89.89;98925.78;109650;1274;22588;-71